createdAt,value
2018-07-13T00:01:57.348Z,93.699997
2018-07-13T00:06:59.522Z,93.099998
2018-07-13T00:12:01.836Z,92.900002
2018-07-13T00:17:04.040Z,92.800003
2018-07-13T00:22:06.380Z,93
2018-07-13T00:27:08.625Z,92.199997
2018-07-13T00:32:11.083Z,92
2018-07-13T00:37:13.200Z,91.400002
2018-07-13T00:42:15.551Z,91.300003
2018-07-13T00:47:17.962Z,91.800003
2018-07-13T00:52:20.154Z,91.699997
2018-07-13T00:57:22.386Z,91.800003
2018-07-13T01:02:24.687Z,90.900002
2018-07-13T01:07:27.089Z,90.5
2018-07-13T01:12:29.327Z,90.599998
2018-07-13T01:17:31.573Z,90
2018-07-13T01:22:33.840Z,89.599998
2018-07-13T01:27:36.288Z,89.699997
2018-07-13T01:32:38.572Z,90
2018-07-13T01:37:40.876Z,89.199997
2018-07-13T01:42:43.031Z,89.900002
2018-07-13T01:47:45.474Z,89.5
2018-07-13T01:52:47.620Z,92.300003
2018-07-13T01:57:49.971Z,90.699997
2018-07-13T02:02:52.418Z,90.5
2018-07-13T02:07:54.453Z,90.199997
2018-07-13T02:12:56.898Z,90.5
2018-07-13T02:17:59.256Z,90.5
2018-07-13T02:23:01.446Z,90.5
2018-07-13T02:28:04.017Z,90.800003
2018-07-13T02:33:06.018Z,91.400002
2018-07-13T02:38:08.366Z,91.400002
2018-07-13T02:43:10.638Z,91.5
2018-07-13T02:48:12.893Z,92.400002
2018-07-13T02:53:15.389Z,92.5
2018-07-13T02:58:17.550Z,93.099998
2018-07-13T03:03:19.767Z,93.800003
2018-07-13T03:08:21.996Z,94.699997
2018-07-13T03:13:24.425Z,95.599998
2018-07-13T03:18:26.639Z,96.599998
2018-07-13T03:23:28.928Z,97.400002
2018-07-13T03:28:31.269Z,97.699997
2018-07-13T03:33:33.690Z,98.5
2018-07-13T03:38:35.802Z,99.099998
2018-07-13T03:43:38.145Z,99.900002
2018-07-13T03:48:40.522Z,99.900002
2018-07-13T03:53:42.679Z,99.900002
2018-07-13T03:58:44.946Z,99.900002
2018-07-13T04:03:47.584Z,99.900002
2018-07-13T04:08:49.586Z,99.900002
2018-07-13T04:13:51.864Z,99.900002
2018-07-13T04:18:54.200Z,99.900002
2018-07-13T04:23:56.641Z,99.900002
2018-07-13T04:28:58.783Z,99.900002
2018-07-13T04:34:01.078Z,99.900002
2018-07-13T04:39:03.378Z,99.900002
2018-07-13T04:44:05.694Z,99.900002
2018-07-13T04:49:08.021Z,99.900002
2018-07-13T04:54:10.269Z,99.900002
2018-07-13T04:59:12.637Z,99.900002
2018-07-13T05:04:14.892Z,99.900002
2018-07-13T05:09:17.190Z,99.900002
2018-07-13T05:14:19.424Z,99.900002
2018-07-13T05:19:21.678Z,99.900002
2018-07-13T05:24:24.095Z,99.900002
2018-07-13T05:29:26.258Z,99.900002
2018-07-13T05:34:28.738Z,99.900002
2018-07-13T05:39:30.939Z,99.900002
2018-07-13T05:44:33.258Z,99.900002
2018-07-13T05:49:35.451Z,99.900002
2018-07-13T05:54:37.870Z,99.900002
2018-07-13T05:59:40.121Z,99.900002
2018-07-13T06:04:42.276Z,99.900002
2018-07-13T06:09:44.665Z,99
2018-07-13T06:14:46.920Z,97.599998
2018-07-13T06:19:49.250Z,96.400002
2018-07-13T06:24:51.482Z,96.699997
2018-07-13T06:29:53.756Z,92.699997
2018-07-13T06:34:56.234Z,89
2018-07-13T06:39:58.462Z,93.900002
2018-07-13T06:45:00.750Z,86.300003
2018-07-13T06:50:03.036Z,84.699997
2018-07-13T06:55:05.435Z,82.599998
2018-07-13T07:00:07.510Z,84.400002
2018-07-13T07:05:09.940Z,81.199997
2018-07-13T07:10:12.268Z,79.5
2018-07-13T07:15:14.629Z,81.099998
2018-07-13T07:20:16.870Z,74.900002
2018-07-13T07:25:19.055Z,72.400002
2018-07-13T07:30:21.352Z,69.300003
2018-07-13T07:35:23.563Z,71.400002
2018-07-13T07:40:26.206Z,75.800003
2018-07-13T07:45:28.449Z,68.5
2018-07-13T07:50:30.540Z,64.900002
2018-07-13T07:55:32.922Z,67.800003
2018-07-13T08:00:35.164Z,63.299999
2018-07-13T08:05:37.506Z,60.299999
2018-07-13T08:10:39.881Z,57.400002
2018-07-13T08:15:42.086Z,60.5
2018-07-13T08:20:44.452Z,54.700001
2018-07-13T08:25:46.762Z,51.299999
2018-07-13T08:30:48.911Z,53.700001
2018-07-13T08:35:51.396Z,54.5
2018-07-13T08:40:53.609Z,50.900002
2018-07-13T08:45:55.881Z,53.599998
2018-07-13T08:50:58.050Z,54.700001
2018-07-13T08:56:00.407Z,51.700001
2018-07-13T09:01:02.794Z,52.900002
2018-07-13T09:06:05.038Z,54.099998
2018-07-13T09:11:07.248Z,50
2018-07-13T09:16:09.553Z,50.5
2018-07-13T09:21:11.898Z,48.299999
2018-07-13T09:26:14.073Z,49.700001
2018-07-13T09:36:18.764Z,43.5
2018-07-13T09:41:21.118Z,40.5
2018-07-13T09:46:23.233Z,42.200001
2018-07-13T09:51:25.634Z,41.900002
2018-07-13T09:56:27.961Z,39.700001
2018-07-13T10:01:30.220Z,41.700001
2018-07-13T10:06:32.456Z,40.099998
2018-07-13T10:11:34.857Z,41.700001
2018-07-13T10:16:37.140Z,38.099998
2018-07-13T10:21:39.328Z,37.099998
2018-07-13T10:26:41.608Z,38.099998
2018-07-13T10:31:43.993Z,36.200001
2018-07-13T10:36:46.349Z,40.5
2018-07-13T10:41:48.552Z,36.400002
2018-07-13T10:46:50.902Z,33.700001
2018-07-13T10:51:53.242Z,35.400002
2018-07-13T10:56:55.413Z,34.799999
2018-07-13T11:01:57.619Z,35.400002
2018-07-13T11:07:00.088Z,36.599998
2018-07-13T11:12:02.472Z,35.299999
2018-07-13T11:17:04.825Z,39
2018-07-13T11:22:06.936Z,39.099998
2018-07-13T11:27:09.368Z,38.599998
2018-07-13T11:32:11.527Z,37.900002
2018-07-13T11:37:14.040Z,42.299999
2018-07-13T11:42:16.094Z,40.799999
2018-07-13T11:47:18.355Z,41.200001
2018-07-13T11:52:20.737Z,41
2018-07-13T11:57:22.960Z,43.200001
2018-07-13T12:02:25.228Z,35.700001
2018-07-13T12:07:27.718Z,35.900002
2018-07-13T12:12:29.864Z,36.400002
2018-07-13T12:17:32.376Z,35.299999
2018-07-13T12:22:34.448Z,34.400002
2018-07-13T12:27:36.888Z,32.400002
2018-07-13T12:32:38.999Z,31.4
2018-07-13T12:37:41.269Z,33.200001
2018-07-13T12:42:43.529Z,32
2018-07-13T12:47:45.976Z,31.700001
2018-07-13T12:52:48.207Z,28
2018-07-13T12:57:50.567Z,30.5
2018-07-13T13:02:52.907Z,29.6
2018-07-13T13:07:55.152Z,32.5
2018-07-13T13:12:57.399Z,31.700001
2018-07-13T13:17:59.780Z,29.5
2018-07-13T13:23:02.083Z,31.200001
2018-07-13T13:28:04.204Z,27.200001
2018-07-13T13:33:06.632Z,31.1
2018-07-13T13:38:08.789Z,31.6
2018-07-13T13:43:11.224Z,32.900002
2018-07-13T13:48:13.430Z,36.200001
2018-07-13T13:53:15.704Z,34
2018-07-13T13:58:18.108Z,34.5
2018-07-13T14:03:20.306Z,33.299999
2018-07-13T14:08:22.584Z,34.299999
2018-07-13T14:13:24.943Z,34.599998
2018-07-13T14:18:27.279Z,35.099998
2018-07-13T14:23:29.556Z,39
2018-07-13T14:28:31.849Z,38.099998
2018-07-13T14:33:34.125Z,38
2018-07-13T14:38:36.449Z,37.200001
2018-07-13T14:43:38.677Z,32
2018-07-13T14:48:41.029Z,34.599998
2018-07-13T14:53:43.342Z,31.5
2018-07-13T14:58:45.717Z,33.900002
2018-07-13T15:03:47.890Z,32.900002
2018-07-13T15:08:50.131Z,33.299999
2018-07-13T15:13:52.517Z,35.400002
2018-07-13T15:18:54.761Z,34.700001
2018-07-13T15:23:57.060Z,34.400002
2018-07-13T15:28:59.365Z,31.6
2018-07-13T15:34:01.642Z,35.599998
2018-07-13T15:39:03.914Z,33.599998
2018-07-13T15:44:06.211Z,35.200001
2018-07-13T15:49:08.580Z,34.400002
2018-07-13T15:54:10.921Z,36.599998
2018-07-13T15:59:13.026Z,37.799999
2018-07-13T16:04:15.356Z,36.900002
2018-07-13T16:09:17.630Z,36.900002
2018-07-13T16:14:20.025Z,38.5
2018-07-13T16:19:22.304Z,41
2018-07-13T16:24:24.550Z,42.900002
2018-07-13T16:29:27.001Z,39.900002
2018-07-13T16:34:29.089Z,42.099998
2018-07-13T16:39:31.373Z,43.700001
2018-07-13T16:44:33.843Z,43.5
2018-07-13T16:54:42.270Z,44.799999
2018-07-13T16:59:44.709Z,46.700001
2018-07-13T17:04:47.031Z,45.5
2018-07-13T17:14:51.472Z,46
2018-07-13T17:19:53.909Z,47.099998
2018-07-13T17:24:56.181Z,46.799999
2018-07-13T17:29:58.339Z,47.799999
2018-07-13T17:35:00.817Z,49.900002
2018-07-13T17:40:03.147Z,48.599998
2018-07-13T17:45:05.278Z,49.299999
2018-07-13T17:50:07.554Z,50.200001
2018-07-13T17:55:09.942Z,51.400002
2018-07-13T18:00:12.093Z,50.299999
2018-07-13T18:05:14.403Z,50.5
2018-07-13T18:10:16.829Z,50.799999
2018-07-13T18:15:19.141Z,52.599998
2018-07-13T18:20:21.234Z,51.900002
2018-07-13T18:25:23.734Z,54
2018-07-13T18:30:26.017Z,52.5
2018-07-13T18:35:28.301Z,54.599998
2018-07-13T18:40:30.572Z,53.400002
2018-07-13T18:45:32.930Z,55.700001
2018-07-13T18:50:35.240Z,55.599998
2018-07-13T18:55:37.342Z,55.5
2018-07-13T19:00:39.805Z,56
2018-07-13T19:05:42.046Z,58.700001
2018-07-13T19:10:44.368Z,58.099998
2018-07-13T19:20:49.013Z,60
2018-07-13T19:25:51.263Z,62.799999
2018-07-13T19:30:53.573Z,61.299999
2018-07-13T19:35:56.021Z,62.400002
2018-07-13T19:40:58.143Z,63
2018-07-13T19:46:00.332Z,64.099998
2018-07-13T19:51:02.590Z,64.800003
2018-07-13T19:56:04.990Z,65.800003
2018-07-13T20:01:07.336Z,67
2018-07-13T20:06:09.429Z,67.699997
2018-07-13T20:11:11.777Z,68.400002
2018-07-13T20:16:14.180Z,68.900002
2018-07-13T20:21:16.429Z,69.800003
2018-07-13T20:26:18.668Z,70.699997
2018-07-13T20:31:20.884Z,71.800003
2018-07-13T20:36:23.305Z,72.599998
2018-07-13T20:41:25.536Z,73.400002
2018-07-13T20:46:28.000Z,73.900002
2018-07-13T20:51:30.069Z,74.599998
2018-07-13T20:56:32.521Z,75.300003
2018-07-13T21:01:34.691Z,76.099998
2018-07-13T21:06:37.080Z,76.400002
2018-07-13T21:11:39.385Z,77
2018-07-13T21:16:41.610Z,78.099998
2018-07-13T21:21:44.046Z,78.400002
2018-07-13T21:31:58.514Z,79.400002
2018-07-13T21:37:00.777Z,80.099998
2018-07-13T21:47:05.230Z,81.400002
2018-07-13T21:52:07.631Z,81.599998
2018-07-13T21:57:09.793Z,82.099998
2018-07-13T22:02:12.149Z,83
2018-07-13T22:07:14.503Z,83.699997
2018-07-13T22:12:16.749Z,83.699997
2018-07-13T22:17:19.049Z,83.599998
2018-07-13T22:22:21.402Z,83.199997
2018-07-13T22:27:23.636Z,83.699997
2018-07-13T22:32:25.946Z,84.099998
2018-07-13T22:37:28.419Z,84.099998
2018-07-13T22:42:30.708Z,84.099998
2018-07-13T22:47:32.907Z,84.199997
2018-07-13T22:52:35.121Z,84.5
2018-07-13T22:57:37.477Z,84.699997
2018-07-13T23:02:39.836Z,84.800003
2018-07-13T23:07:42.057Z,85.099998
2018-07-13T23:12:44.318Z,85.599998
2018-07-13T23:17:46.537Z,85.400002
2018-07-13T23:22:48.977Z,86.099998
2018-07-13T23:27:51.217Z,86.400002
2018-07-13T23:32:53.461Z,86.699997
2018-07-13T23:37:55.750Z,87.300003
2018-07-13T23:42:58.232Z,87.199997
2018-07-13T23:48:00.332Z,87.5
2018-07-13T23:53:02.660Z,87.699997
2018-07-13T23:58:04.883Z,88.199997
